sensor_id;sensor_type;location;lat;lon;timestamp;P1;durP1;ratioP1;P2;durP2;ratioP2
33150;SDS011;19508;42.578;23.416;2023-02-08T00:01:38;61.53;;;22.48;;
33150;SDS011;19508;42.578;23.416;2023-02-08T00:04:04;47.20;;;20.92;;
33150;SDS011;19508;42.578;23.416;2023-02-08T00:06:29;57.05;;;20.98;;
33150;SDS011;19508;42.578;23.416;2023-02-08T00:08:55;63.15;;;25.73;;
33150;SDS011;19508;42.578;23.416;2023-02-08T00:11:20;45.45;;;18.65;;
33150;SDS011;19508;42.578;23.416;2023-02-08T00:13:45;51.15;;;19.40;;
33150;SDS011;19508;42.578;23.416;2023-02-08T00:16:12;44.10;;;16.98;;
33150;SDS011;19508;42.578;23.416;2023-02-08T00:18:38;36.55;;;15.73;;
33150;SDS011;19508;42.578;23.416;2023-02-08T00:21:11;45.63;;;17.48;;
33150;SDS011;19508;42.578;23.416;2023-02-08T00:23:38;43.17;;;16.65;;
33150;SDS011;19508;42.578;23.416;2023-02-08T00:26:04;49.67;;;19.45;;
33150;SDS011;19508;42.578;23.416;2023-02-08T00:28:29;58.22;;;20.27;;
33150;SDS011;19508;42.578;23.416;2023-02-08T00:30:55;51.15;;;20.92;;
33150;SDS011;19508;42.578;23.416;2023-02-08T00:33:20;51.05;;;21.00;;
33150;SDS011;19508;42.578;23.416;2023-02-08T00:35:46;55.63;;;22.27;;
33150;SDS011;19508;42.578;23.416;2023-02-08T00:38:11;57.45;;;22.13;;
33150;SDS011;19508;42.578;23.416;2023-02-08T00:40:36;53.80;;;21.35;;
33150;SDS011;19508;42.578;23.416;2023-02-08T00:43:02;73.55;;;27.55;;
33150;SDS011;19508;42.578;23.416;2023-02-08T00:45:28;50.67;;;21.92;;
33150;SDS011;19508;42.578;23.416;2023-02-08T00:47:53;54.28;;;20.67;;
33150;SDS011;19508;42.578;23.416;2023-02-08T00:50:18;55.95;;;21.02;;
33150;SDS011;19508;42.578;23.416;2023-02-08T00:52:44;95.63;;;30.23;;
33150;SDS011;19508;42.578;23.416;2023-02-08T00:55:09;56.83;;;21.17;;
33150;SDS011;19508;42.578;23.416;2023-02-08T00:57:35;53.08;;;18.50;;
33150;SDS011;19508;42.578;23.416;2023-02-08T01:00:00;99.55;;;32.33;;
33150;SDS011;19508;42.578;23.416;2023-02-08T01:02:27;77.18;;;26.90;;
33150;SDS011;19508;42.578;23.416;2023-02-08T01:04:52;91.72;;;30.02;;
33150;SDS011;19508;42.578;23.416;2023-02-08T01:07:18;127.55;;;40.85;;
33150;SDS011;19508;42.578;23.416;2023-02-08T01:09:43;113.78;;;35.50;;
33150;SDS011;19508;42.578;23.416;2023-02-08T01:12:09;43.67;;;17.75;;
33150;SDS011;19508;42.578;23.416;2023-02-08T01:14:36;40.22;;;16.73;;
33150;SDS011;19508;42.578;23.416;2023-02-08T01:19:36;50.03;;;20.67;;
33150;SDS011;19508;42.578;23.416;2023-02-08T01:22:02;57.88;;;22.20;;
33150;SDS011;19508;42.578;23.416;2023-02-08T01:24:27;54.33;;;22.73;;
33150;SDS011;19508;42.578;23.416;2023-02-08T01:26:52;58.10;;;22.35;;
33150;SDS011;19508;42.578;23.416;2023-02-08T01:29:18;61.78;;;22.23;;
33150;SDS011;19508;42.578;23.416;2023-02-08T01:31:43;60.00;;;22.75;;
33150;SDS011;19508;42.578;23.416;2023-02-08T01:34:10;62.22;;;23.45;;
33150;SDS011;19508;42.578;23.416;2023-02-08T01:36:36;39.78;;;17.95;;
33150;SDS011;19508;42.578;23.416;2023-02-08T01:39:02;52.47;;;18.98;;
33150;SDS011;19508;42.578;23.416;2023-02-08T01:41:33;36.45;;;16.05;;
33150;SDS011;19508;42.578;23.416;2023-02-08T01:46:39;43.40;;;16.05;;
33150;SDS011;19508;42.578;23.416;2023-02-08T01:51:48;44.10;;;16.00;;
33150;SDS011;19508;42.578;23.416;2023-02-08T01:54:18;34.65;;;14.85;;
33150;SDS011;19508;42.578;23.416;2023-02-08T01:56:47;31.35;;;14.70;;
33150;SDS011;19508;42.578;23.416;2023-02-08T01:59:19;38.25;;;15.10;;
33150;SDS011;19508;42.578;23.416;2023-02-08T02:01:50;36.97;;;14.07;;
33150;SDS011;19508;42.578;23.416;2023-02-08T02:04:18;34.40;;;15.25;;
33150;SDS011;19508;42.578;23.416;2023-02-08T02:06:48;37.45;;;14.30;;
33150;SDS011;19508;42.578;23.416;2023-02-08T02:11:52;31.92;;;12.77;;
33150;SDS011;19508;42.578;23.416;2023-02-08T02:14:18;31.95;;;12.40;;
33150;SDS011;19508;42.578;23.416;2023-02-08T02:16:45;32.78;;;13.90;;
33150;SDS011;19508;42.578;23.416;2023-02-08T02:19:14;34.08;;;14.40;;
33150;SDS011;19508;42.578;23.416;2023-02-08T02:22:02;32.80;;;14.05;;
33150;SDS011;19508;42.578;23.416;2023-02-08T02:51:30;35.40;;;15.25;;
33150;SDS011;19508;42.578;23.416;2023-02-08T02:54:06;40.25;;;16.08;;
33150;SDS011;19508;42.578;23.416;2023-02-08T02:56:43;35.45;;;16.40;;
33150;SDS011;19508;42.578;23.416;2023-02-08T02:59:11;35.45;;;16.45;;
33150;SDS011;19508;42.578;23.416;2023-02-08T03:01:39;37.58;;;14.98;;
33150;SDS011;19508;42.578;23.416;2023-02-08T03:04:16;37.05;;;13.98;;
33150;SDS011;19508;42.578;23.416;2023-02-08T03:12:33;39.95;;;16.13;;
33150;SDS011;19508;42.578;23.416;2023-02-08T03:21:11;68.07;;;21.73;;
33150;SDS011;19508;42.578;23.416;2023-02-08T03:34:30;40.15;;;16.65;;
33150;SDS011;19508;42.578;23.416;2023-02-08T03:37:00;38.78;;;16.13;;
33150;SDS011;19508;42.578;23.416;2023-02-08T03:39:30;39.78;;;16.77;;
33150;SDS011;19508;42.578;23.416;2023-02-08T03:42:00;43.38;;;17.27;;
33150;SDS011;19508;42.578;23.416;2023-02-08T03:44:35;39.40;;;16.17;;
33150;SDS011;19508;42.578;23.416;2023-02-08T03:47:06;44.95;;;18.83;;
33150;SDS011;19508;42.578;23.416;2023-02-08T03:49:44;39.45;;;17.73;;
33150;SDS011;19508;42.578;23.416;2023-02-08T03:52:16;34.65;;;16.38;;
33150;SDS011;19508;42.578;23.416;2023-02-08T03:54:46;47.17;;;18.80;;
33150;SDS011;19508;42.578;23.416;2023-02-08T03:57:29;48.03;;;19.25;;
33150;SDS011;19508;42.578;23.416;2023-02-08T04:00:01;47.75;;;20.35;;
33150;SDS011;19508;42.578;23.416;2023-02-08T04:02:32;59.63;;;21.70;;
33150;SDS011;19508;42.578;23.416;2023-02-08T04:05:01;50.08;;;19.55;;
33150;SDS011;19508;42.578;23.416;2023-02-08T04:07:28;54.53;;;21.05;;
33150;SDS011;19508;42.578;23.416;2023-02-08T04:09:54;56.17;;;20.40;;
33150;SDS011;19508;42.578;23.416;2023-02-08T04:12:19;53.30;;;20.73;;
33150;SDS011;19508;42.578;23.416;2023-02-08T04:14:45;49.30;;;20.73;;
33150;SDS011;19508;42.578;23.416;2023-02-08T04:17:10;53.40;;;22.05;;
33150;SDS011;19508;42.578;23.416;2023-02-08T04:19:36;102.78;;;34.97;;
33150;SDS011;19508;42.578;23.416;2023-02-08T04:22:01;139.90;;;44.33;;
33150;SDS011;19508;42.578;23.416;2023-02-08T04:24:26;150.73;;;48.17;;
33150;SDS011;19508;42.578;23.416;2023-02-08T04:26:52;147.73;;;45.55;;
33150;SDS011;19508;42.578;23.416;2023-02-08T04:29:17;63.65;;;24.90;;
33150;SDS011;19508;42.578;23.416;2023-02-08T04:31:43;57.38;;;22.08;;
33150;SDS011;19508;42.578;23.416;2023-02-08T04:34:08;58.30;;;23.88;;
33150;SDS011;19508;42.578;23.416;2023-02-08T04:36:34;76.53;;;27.85;;
33150;SDS011;19508;42.578;23.416;2023-02-08T04:38:59;65.90;;;26.60;;
33150;SDS011;19508;42.578;23.416;2023-02-08T04:41:24;64.97;;;26.58;;
33150;SDS011;19508;42.578;23.416;2023-02-08T04:43:50;68.47;;;26.58;;
33150;SDS011;19508;42.578;23.416;2023-02-08T04:46:15;62.45;;;24.38;;
33150;SDS011;19508;42.578;23.416;2023-02-08T04:48:41;63.13;;;24.08;;
33150;SDS011;19508;42.578;23.416;2023-02-08T04:51:06;57.80;;;22.90;;
33150;SDS011;19508;42.578;23.416;2023-02-08T04:53:32;74.57;;;26.98;;
33150;SDS011;19508;42.578;23.416;2023-02-08T04:55:57;64.80;;;27.52;;
33150;SDS011;19508;42.578;23.416;2023-02-08T04:58:22;75.50;;;30.20;;
33150;SDS011;19508;42.578;23.416;2023-02-08T05:00:48;76.45;;;26.55;;
33150;SDS011;19508;42.578;23.416;2023-02-08T05:03:14;73.97;;;27.63;;
33150;SDS011;19508;42.578;23.416;2023-02-08T05:05:40;100.93;;;34.22;;
33150;SDS011;19508;42.578;23.416;2023-02-08T05:08:06;95.95;;;34.10;;
33150;SDS011;19508;42.578;23.416;2023-02-08T05:10:31;107.53;;;37.40;;
33150;SDS011;19508;42.578;23.416;2023-02-08T05:12:57;96.93;;;37.88;;
33150;SDS011;19508;42.578;23.416;2023-02-08T05:15:23;111.00;;;39.65;;
33150;SDS011;19508;42.578;23.416;2023-02-08T05:17:49;95.00;;;36.25;;
33150;SDS011;19508;42.578;23.416;2023-02-08T05:20:14;105.45;;;38.78;;
33150;SDS011;19508;42.578;23.416;2023-02-08T05:22:40;102.25;;;38.50;;
33150;SDS011;19508;42.578;23.416;2023-02-08T05:25:05;85.95;;;32.63;;
33150;SDS011;19508;42.578;23.416;2023-02-08T05:27:32;78.43;;;30.25;;
33150;SDS011;19508;42.578;23.416;2023-02-08T05:29:58;72.78;;;30.10;;
33150;SDS011;19508;42.578;23.416;2023-02-08T05:32:24;83.07;;;32.85;;
33150;SDS011;19508;42.578;23.416;2023-02-08T05:34:49;85.65;;;32.65;;
33150;SDS011;19508;42.578;23.416;2023-02-08T05:37:14;84.63;;;31.92;;
33150;SDS011;19508;42.578;23.416;2023-02-08T05:39:40;81.97;;;31.15;;
33150;SDS011;19508;42.578;23.416;2023-02-08T05:42:05;76.32;;;30.02;;
33150;SDS011;19508;42.578;23.416;2023-02-08T05:44:31;85.32;;;32.05;;
33150;SDS011;19508;42.578;23.416;2023-02-08T05:46:57;74.22;;;31.77;;
33150;SDS011;19508;42.578;23.416;2023-02-08T05:49:22;75.38;;;30.52;;
33150;SDS011;19508;42.578;23.416;2023-02-08T05:51:48;91.93;;;34.95;;
33150;SDS011;19508;42.578;23.416;2023-02-08T05:54:15;80.03;;;28.00;;
33150;SDS011;19508;42.578;23.416;2023-02-08T05:56:41;97.28;;;33.45;;
33150;SDS011;19508;42.578;23.416;2023-02-08T05:59:07;119.38;;;41.33;;
33150;SDS011;19508;42.578;23.416;2023-02-08T06:01:33;94.75;;;34.42;;
33150;SDS011;19508;42.578;23.416;2023-02-08T06:03:58;94.72;;;35.95;;
33150;SDS011;19508;42.578;23.416;2023-02-08T06:06:24;111.93;;;43.03;;
33150;SDS011;19508;42.578;23.416;2023-02-08T06:08:50;107.40;;;39.10;;
33150;SDS011;19508;42.578;23.416;2023-02-08T06:11:15;102.03;;;40.20;;
33150;SDS011;19508;42.578;23.416;2023-02-08T06:13:43;92.63;;;37.40;;
33150;SDS011;19508;42.578;23.416;2023-02-08T06:16:10;69.57;;;29.23;;
33150;SDS011;19508;42.578;23.416;2023-02-08T06:18:35;66.25;;;27.08;;
33150;SDS011;19508;42.578;23.416;2023-02-08T06:21:01;66.25;;;26.08;;
33150;SDS011;19508;42.578;23.416;2023-02-08T06:23:26;52.10;;;21.88;;
33150;SDS011;19508;42.578;23.416;2023-02-08T06:25:52;51.95;;;22.30;;
33150;SDS011;19508;42.578;23.416;2023-02-08T06:28:17;79.88;;;27.92;;
33150;SDS011;19508;42.578;23.416;2023-02-08T06:30:43;57.55;;;22.98;;
33150;SDS011;19508;42.578;23.416;2023-02-08T06:33:08;76.45;;;30.20;;
33150;SDS011;19508;42.578;23.416;2023-02-08T06:35:34;79.20;;;31.90;;
33150;SDS011;19508;42.578;23.416;2023-02-08T06:37:59;93.35;;;37.33;;
33150;SDS011;19508;42.578;23.416;2023-02-08T06:40:24;81.70;;;30.95;;
33150;SDS011;19508;42.578;23.416;2023-02-08T06:42:50;57.08;;;25.00;;
33150;SDS011;19508;42.578;23.416;2023-02-08T06:45:15;116.07;;;39.25;;
33150;SDS011;19508;42.578;23.416;2023-02-08T06:47:41;122.15;;;42.25;;
33150;SDS011;19508;42.578;23.416;2023-02-08T06:50:07;105.35;;;39.85;;
33150;SDS011;19508;42.578;23.416;2023-02-08T06:52:33;93.07;;;35.05;;
33150;SDS011;19508;42.578;23.416;2023-02-08T06:54:58;86.47;;;34.45;;
33150;SDS011;19508;42.578;23.416;2023-02-08T06:57:24;91.47;;;35.83;;
33150;SDS011;19508;42.578;23.416;2023-02-08T06:59:49;87.57;;;33.58;;
33150;SDS011;19508;42.578;23.416;2023-02-08T07:02:16;69.05;;;28.67;;
33150;SDS011;19508;42.578;23.416;2023-02-08T07:04:43;93.95;;;34.85;;
33150;SDS011;19508;42.578;23.416;2023-02-08T07:07:10;81.85;;;30.60;;
33150;SDS011;19508;42.578;23.416;2023-02-08T07:09:36;79.28;;;33.63;;
33150;SDS011;19508;42.578;23.416;2023-02-08T07:12:01;134.85;;;56.22;;
33150;SDS011;19508;42.578;23.416;2023-02-08T07:14:29;95.15;;;40.15;;
33150;SDS011;19508;42.578;23.416;2023-02-08T07:16:59;78.00;;;32.38;;
33150;SDS011;19508;42.578;23.416;2023-02-08T07:19:25;80.80;;;32.35;;
33150;SDS011;19508;42.578;23.416;2023-02-08T07:21:50;88.90;;;34.45;;
33150;SDS011;19508;42.578;23.416;2023-02-08T07:24:16;113.38;;;41.17;;
33150;SDS011;19508;42.578;23.416;2023-02-08T07:26:41;63.75;;;27.05;;
33150;SDS011;19508;42.578;23.416;2023-02-08T07:29:06;55.40;;;24.83;;
33150;SDS011;19508;42.578;23.416;2023-02-08T07:31:32;60.42;;;24.73;;
33150;SDS011;19508;42.578;23.416;2023-02-08T07:33:57;57.58;;;25.23;;
33150;SDS011;19508;42.578;23.416;2023-02-08T07:36:23;56.22;;;23.85;;
33150;SDS011;19508;42.578;23.416;2023-02-08T07:38:49;49.83;;;20.92;;
33150;SDS011;19508;42.578;23.416;2023-02-08T07:41:14;59.13;;;22.73;;
33150;SDS011;19508;42.578;23.416;2023-02-08T07:43:40;47.75;;;21.13;;
33150;SDS011;19508;42.578;23.416;2023-02-08T07:48:32;43.80;;;17.80;;
33150;SDS011;19508;42.578;23.416;2023-02-08T07:50:58;43.45;;;19.35;;
33150;SDS011;19508;42.578;23.416;2023-02-08T07:53:23;52.08;;;20.58;;
33150;SDS011;19508;42.578;23.416;2023-02-08T07:55:49;48.95;;;22.67;;
33150;SDS011;19508;42.578;23.416;2023-02-08T07:58:14;52.80;;;22.25;;
33150;SDS011;19508;42.578;23.416;2023-02-08T08:00:39;48.10;;;20.08;;
33150;SDS011;19508;42.578;23.416;2023-02-08T08:03:05;46.15;;;19.98;;
33150;SDS011;19508;42.578;23.416;2023-02-08T08:05:30;51.78;;;22.13;;
33150;SDS011;19508;42.578;23.416;2023-02-08T08:07:56;68.63;;;29.38;;
33150;SDS011;19508;42.578;23.416;2023-02-08T08:10:21;75.65;;;29.33;;
33150;SDS011;19508;42.578;23.416;2023-02-08T08:12:47;60.22;;;25.33;;
33150;SDS011;19508;42.578;23.416;2023-02-08T08:15:12;68.18;;;26.73;;
33150;SDS011;19508;42.578;23.416;2023-02-08T08:17:37;63.40;;;25.17;;
33150;SDS011;19508;42.578;23.416;2023-02-08T08:20:06;51.20;;;22.42;;
33150;SDS011;19508;42.578;23.416;2023-02-08T08:22:33;47.28;;;21.75;;
33150;SDS011;19508;42.578;23.416;2023-02-08T08:24:58;48.50;;;22.52;;
33150;SDS011;19508;42.578;23.416;2023-02-08T08:27:24;51.05;;;22.02;;
33150;SDS011;19508;42.578;23.416;2023-02-08T08:29:49;52.17;;;21.30;;
33150;SDS011;19508;42.578;23.416;2023-02-08T08:32:15;45.30;;;19.67;;
33150;SDS011;19508;42.578;23.416;2023-02-08T08:34:40;42.80;;;18.65;;
33150;SDS011;19508;42.578;23.416;2023-02-08T08:37:06;37.83;;;17.45;;
33150;SDS011;19508;42.578;23.416;2023-02-08T08:39:31;35.70;;;16.83;;
33150;SDS011;19508;42.578;23.416;2023-02-08T08:42:00;24.73;;;11.90;;
33150;SDS011;19508;42.578;23.416;2023-02-08T08:44:27;19.33;;;9.98;;
33150;SDS011;19508;42.578;23.416;2023-02-08T08:46:54;29.15;;;13.95;;
33150;SDS011;19508;42.578;23.416;2023-02-08T08:49:21;24.90;;;12.13;;
33150;SDS011;19508;42.578;23.416;2023-02-08T08:51:47;25.27;;;11.70;;
33150;SDS011;19508;42.578;23.416;2023-02-08T08:54:12;25.23;;;12.00;;
33150;SDS011;19508;42.578;23.416;2023-02-08T08:56:37;24.23;;;12.20;;
33150;SDS011;19508;42.578;23.416;2023-02-08T08:59:03;28.00;;;14.30;;
33150;SDS011;19508;42.578;23.416;2023-02-08T09:01:28;26.73;;;12.10;;
33150;SDS011;19508;42.578;23.416;2023-02-08T09:03:54;23.20;;;10.95;;
33150;SDS011;19508;42.578;23.416;2023-02-08T09:06:19;20.95;;;10.57;;
33150;SDS011;19508;42.578;23.416;2023-02-08T09:08:45;27.77;;;11.80;;
33150;SDS011;19508;42.578;23.416;2023-02-08T09:11:11;23.88;;;12.30;;
33150;SDS011;19508;42.578;23.416;2023-02-08T09:13:39;27.45;;;12.38;;
33150;SDS011;19508;42.578;23.416;2023-02-08T09:16:09;30.02;;;12.98;;
33150;SDS011;19508;42.578;23.416;2023-02-08T09:18:34;27.52;;;12.35;;
33150;SDS011;19508;42.578;23.416;2023-02-08T09:21:04;35.17;;;15.77;;
33150;SDS011;19508;42.578;23.416;2023-02-08T09:23:30;43.20;;;15.63;;
33150;SDS011;19508;42.578;23.416;2023-02-08T09:25:56;49.10;;;19.10;;
33150;SDS011;19508;42.578;23.416;2023-02-08T09:28:21;51.95;;;19.33;;
33150;SDS011;19508;42.578;23.416;2023-02-08T09:30:46;40.75;;;16.77;;
33150;SDS011;19508;42.578;23.416;2023-02-08T09:33:12;40.50;;;17.33;;
33150;SDS011;19508;42.578;23.416;2023-02-08T09:35:37;37.35;;;15.77;;
33150;SDS011;19508;42.578;23.416;2023-02-08T09:38:03;46.17;;;18.92;;
33150;SDS011;19508;42.578;23.416;2023-02-08T09:41:17;42.25;;;18.42;;
33150;SDS011;19508;42.578;23.416;2023-02-08T09:49:03;39.90;;;15.52;;
33150;SDS011;19508;42.578;23.416;2023-02-08T09:51:42;35.55;;;15.93;;
33150;SDS011;19508;42.578;23.416;2023-02-08T09:54:19;32.58;;;14.52;;
33150;SDS011;19508;42.578;23.416;2023-02-08T09:56:50;35.42;;;16.20;;
33150;SDS011;19508;42.578;23.416;2023-02-08T09:59:22;31.20;;;14.80;;
33150;SDS011;19508;42.578;23.416;2023-02-08T10:07:28;30.40;;;14.40;;
33150;SDS011;19508;42.578;23.416;2023-02-08T10:09:56;32.53;;;13.85;;
33150;SDS011;19508;42.578;23.416;2023-02-08T10:12:35;37.20;;;15.35;;
33150;SDS011;19508;42.578;23.416;2023-02-08T10:26:13;36.80;;;14.23;;
33150;SDS011;19508;42.578;23.416;2023-02-08T10:29:01;30.98;;;14.25;;
33150;SDS011;19508;42.578;23.416;2023-02-08T10:37:14;30.10;;;12.52;;
33150;SDS011;19508;42.578;23.416;2023-02-08T10:39:42;37.25;;;14.50;;
33150;SDS011;19508;42.578;23.416;2023-02-08T10:42:12;32.95;;;12.77;;
33150;SDS011;19508;42.578;23.416;2023-02-08T10:44:54;25.83;;;11.82;;
33150;SDS011;19508;42.578;23.416;2023-02-08T10:49:59;27.25;;;13.70;;
33150;SDS011;19508;42.578;23.416;2023-02-08T10:52:26;22.70;;;10.57;;
33150;SDS011;19508;42.578;23.416;2023-02-08T10:54:51;23.15;;;11.25;;
33150;SDS011;19508;42.578;23.416;2023-02-08T10:57:22;24.88;;;13.32;;
33150;SDS011;19508;42.578;23.416;2023-02-08T10:59:51;34.05;;;14.85;;
33150;SDS011;19508;42.578;23.416;2023-02-08T11:07:24;20.33;;;9.10;;
33150;SDS011;19508;42.578;23.416;2023-02-08T11:09:49;28.83;;;12.13;;
33150;SDS011;19508;42.578;23.416;2023-02-08T11:12:18;27.58;;;12.90;;
33150;SDS011;19508;42.578;23.416;2023-02-08T11:14:51;29.05;;;12.85;;
33150;SDS011;19508;42.578;23.416;2023-02-08T11:17:23;21.92;;;10.65;;
33150;SDS011;19508;42.578;23.416;2023-02-08T11:19:54;23.80;;;11.38;;
33150;SDS011;19508;42.578;23.416;2023-02-08T11:22:22;28.88;;;11.05;;
33150;SDS011;19508;42.578;23.416;2023-02-08T11:24:55;22.38;;;11.63;;
33150;SDS011;19508;42.578;23.416;2023-02-08T11:27:36;14.77;;;7.47;;
33150;SDS011;19508;42.578;23.416;2023-02-08T11:32:37;30.88;;;12.48;;
33150;SDS011;19508;42.578;23.416;2023-02-08T11:35:18;27.88;;;13.52;;
33150;SDS011;19508;42.578;23.416;2023-02-08T11:37:46;36.22;;;18.48;;
33150;SDS011;19508;42.578;23.416;2023-02-08T11:40:27;41.95;;;19.58;;
33150;SDS011;19508;42.578;23.416;2023-02-08T11:42:57;36.92;;;16.75;;
33150;SDS011;19508;42.578;23.416;2023-02-08T11:45:23;33.20;;;14.38;;
33150;SDS011;19508;42.578;23.416;2023-02-08T11:47:53;33.25;;;14.60;;
33150;SDS011;19508;42.578;23.416;2023-02-08T11:50:36;31.88;;;13.90;;
33150;SDS011;19508;42.578;23.416;2023-02-08T11:53:04;33.33;;;13.98;;
33150;SDS011;19508;42.578;23.416;2023-02-08T11:55:32;31.65;;;13.38;;
33150;SDS011;19508;42.578;23.416;2023-02-08T11:57:59;40.45;;;15.23;;
33150;SDS011;19508;42.578;23.416;2023-02-08T12:00:28;36.10;;;15.57;;
33150;SDS011;19508;42.578;23.416;2023-02-08T12:03:00;31.00;;;13.90;;
33150;SDS011;19508;42.578;23.416;2023-02-08T12:06:13;33.88;;;15.60;;
33150;SDS011;19508;42.578;23.416;2023-02-08T12:21:53;32.55;;;15.23;;
33150;SDS011;19508;42.578;23.416;2023-02-08T12:27:18;40.45;;;18.42;;
33150;SDS011;19508;42.578;23.416;2023-02-08T12:33:08;34.88;;;16.95;;
33150;SDS011;19508;42.578;23.416;2023-02-08T12:36:04;39.97;;;17.90;;
33150;SDS011;19508;42.578;23.416;2023-02-08T12:41:25;31.13;;;14.18;;
33150;SDS011;19508;42.578;23.416;2023-02-08T12:44:06;29.35;;;13.18;;
33150;SDS011;19508;42.578;23.416;2023-02-08T12:52:01;19.27;;;8.93;;
33150;SDS011;19508;42.578;23.416;2023-02-08T12:57:27;24.38;;;11.00;;
33150;SDS011;19508;42.578;23.416;2023-02-08T13:04:51;22.20;;;10.65;;
33150;SDS011;19508;42.578;23.416;2023-02-08T13:07:33;21.88;;;10.10;;
33150;SDS011;19508;42.578;23.416;2023-02-08T13:10:15;22.05;;;9.98;;
33150;SDS011;19508;42.578;23.416;2023-02-08T13:12:45;22.98;;;9.98;;
33150;SDS011;19508;42.578;23.416;2023-02-08T13:20:51;16.70;;;5.97;;
33150;SDS011;19508;42.578;23.416;2023-02-08T13:23:24;19.73;;;9.15;;
33150;SDS011;19508;42.578;23.416;2023-02-08T13:26:02;24.55;;;10.73;;
33150;SDS011;19508;42.578;23.416;2023-02-08T13:28:32;22.10;;;10.77;;
33150;SDS011;19508;42.578;23.416;2023-02-08T13:30:59;19.33;;;8.93;;
33150;SDS011;19508;42.578;23.416;2023-02-08T13:35:58;20.38;;;9.95;;
33150;SDS011;19508;42.578;23.416;2023-02-08T13:38:28;19.70;;;9.70;;
33150;SDS011;19508;42.578;23.416;2023-02-08T13:41:14;16.67;;;8.48;;
33150;SDS011;19508;42.578;23.416;2023-02-08T13:46:25;20.48;;;9.40;;
33150;SDS011;19508;42.578;23.416;2023-02-08T13:48:56;36.00;;;18.20;;
33150;SDS011;19508;42.578;23.416;2023-02-08T14:07:24;21.30;;;7.10;;
33150;SDS011;19508;42.578;23.416;2023-02-08T14:17:43;19.75;;;9.80;;
33150;SDS011;19508;42.578;23.416;2023-02-08T14:20:23;12.65;;;6.30;;
33150;SDS011;19508;42.578;23.416;2023-02-08T14:23:02;14.25;;;7.07;;
33150;SDS011;19508;42.578;23.416;2023-02-08T14:25:45;20.48;;;8.77;;
33150;SDS011;19508;42.578;23.416;2023-02-08T14:31:09;16.75;;;9.32;;
33150;SDS011;19508;42.578;23.416;2023-02-08T14:33:39;21.25;;;10.55;;
33150;SDS011;19508;42.578;23.416;2023-02-08T14:36:18;18.17;;;7.60;;
33150;SDS011;19508;42.578;23.416;2023-02-08T14:41:48;21.52;;;7.35;;
33150;SDS011;19508;42.578;23.416;2023-02-08T14:45:02;11.18;;;6.15;;
33150;SDS011;19508;42.578;23.416;2023-02-08T14:47:02;17.33;;;6.53;;
33150;SDS011;19508;42.578;23.416;2023-02-08T14:49:39;16.15;;;7.25;;
33150;SDS011;19508;42.578;23.416;2023-02-08T14:52:11;6.32;;;3.97;;
33150;SDS011;19508;42.578;23.416;2023-02-08T14:54:44;15.98;;;3.65;;
33150;SDS011;19508;42.578;23.416;2023-02-08T14:59:58;16.83;;;8.00;;
33150;SDS011;19508;42.578;23.416;2023-02-08T15:02:25;26.20;;;8.55;;
33150;SDS011;19508;42.578;23.416;2023-02-08T15:04:56;22.83;;;8.95;;
33150;SDS011;19508;42.578;23.416;2023-02-08T15:10:00;15.75;;;7.68;;
33150;SDS011;19508;42.578;23.416;2023-02-08T15:12:30;25.80;;;9.80;;
33150;SDS011;19508;42.578;23.416;2023-02-08T15:14:59;33.95;;;14.85;;
33150;SDS011;19508;42.578;23.416;2023-02-08T15:20:31;20.55;;;10.55;;
33150;SDS011;19508;42.578;23.416;2023-02-08T15:23:21;19.42;;;8.50;;
33150;SDS011;19508;42.578;23.416;2023-02-08T15:25:57;29.13;;;13.07;;
33150;SDS011;19508;42.578;23.416;2023-02-08T15:28:24;25.92;;;9.98;;
33150;SDS011;19508;42.578;23.416;2023-02-08T15:31:06;20.35;;;9.63;;
33150;SDS011;19508;42.578;23.416;2023-02-08T15:33:36;20.63;;;9.50;;
33150;SDS011;19508;42.578;23.416;2023-02-08T15:36:14;18.67;;;9.02;;
33150;SDS011;19508;42.578;23.416;2023-02-08T15:38:42;22.23;;;9.88;;
33150;SDS011;19508;42.578;23.416;2023-02-08T15:41:12;25.38;;;11.60;;
33150;SDS011;19508;42.578;23.416;2023-02-08T15:43:40;22.98;;;11.68;;
33150;SDS011;19508;42.578;23.416;2023-02-08T15:46:15;28.00;;;10.18;;
33150;SDS011;19508;42.578;23.416;2023-02-08T15:48:45;29.65;;;12.35;;
33150;SDS011;19508;42.578;23.416;2023-02-08T15:51:12;33.35;;;13.70;;
33150;SDS011;19508;42.578;23.416;2023-02-08T15:53:40;31.73;;;14.25;;
33150;SDS011;19508;42.578;23.416;2023-02-08T15:56:09;31.48;;;14.02;;
33150;SDS011;19508;42.578;23.416;2023-02-08T15:58:39;36.25;;;15.00;;
33150;SDS011;19508;42.578;23.416;2023-02-08T16:01:17;36.30;;;15.47;;
33150;SDS011;19508;42.578;23.416;2023-02-08T16:03:50;34.08;;;14.50;;
33150;SDS011;19508;42.578;23.416;2023-02-08T16:06:23;34.75;;;15.52;;
33150;SDS011;19508;42.578;23.416;2023-02-08T16:08:51;53.63;;;19.58;;
33150;SDS011;19508;42.578;23.416;2023-02-08T16:11:23;58.28;;;21.02;;
33150;SDS011;19508;42.578;23.416;2023-02-08T16:13:52;46.45;;;19.02;;
33150;SDS011;19508;42.578;23.416;2023-02-08T16:16:39;54.30;;;20.73;;
33150;SDS011;19508;42.578;23.416;2023-02-08T16:21:56;36.83;;;13.75;;
33150;SDS011;19508;42.578;23.416;2023-02-08T16:24:40;43.58;;;16.92;;
33150;SDS011;19508;42.578;23.416;2023-02-08T16:27:13;38.92;;;14.13;;
33150;SDS011;19508;42.578;23.416;2023-02-08T16:29:44;36.33;;;14.45;;
33150;SDS011;19508;42.578;23.416;2023-02-08T16:32:31;35.45;;;14.07;;
33150;SDS011;19508;42.578;23.416;2023-02-08T16:35:09;47.78;;;15.70;;
33150;SDS011;19508;42.578;23.416;2023-02-08T16:37:37;36.42;;;15.25;;
33150;SDS011;19508;42.578;23.416;2023-02-08T16:40:30;45.05;;;17.10;;
33150;SDS011;19508;42.578;23.416;2023-02-08T16:43:30;39.75;;;16.52;;
33150;SDS011;19508;42.578;23.416;2023-02-08T16:48:41;50.83;;;17.88;;
33150;SDS011;19508;42.578;23.416;2023-02-08T16:51:12;47.42;;;18.75;;
33150;SDS011;19508;42.578;23.416;2023-02-08T16:53:40;49.83;;;17.45;;
33150;SDS011;19508;42.578;23.416;2023-02-08T16:56:07;32.15;;;14.00;;
33150;SDS011;19508;42.578;23.416;2023-02-08T16:58:34;30.67;;;11.35;;
33150;SDS011;19508;42.578;23.416;2023-02-08T17:00:59;26.48;;;11.25;;
33150;SDS011;19508;42.578;23.416;2023-02-08T17:03:25;26.38;;;12.05;;
33150;SDS011;19508;42.578;23.416;2023-02-08T17:05:50;32.30;;;12.18;;
33150;SDS011;19508;42.578;23.416;2023-02-08T17:08:17;31.05;;;12.25;;
33150;SDS011;19508;42.578;23.416;2023-02-08T17:10:45;23.92;;;10.18;;
33150;SDS011;19508;42.578;23.416;2023-02-08T17:13:12;27.55;;;11.68;;
33150;SDS011;19508;42.578;23.416;2023-02-08T17:15:38;23.65;;;10.52;;
33150;SDS011;19508;42.578;23.416;2023-02-08T17:18:04;36.40;;;15.43;;
33150;SDS011;19508;42.578;23.416;2023-02-08T17:20:30;71.22;;;22.77;;
33150;SDS011;19508;42.578;23.416;2023-02-08T17:22:58;60.85;;;19.65;;
33150;SDS011;19508;42.578;23.416;2023-02-08T17:25:26;34.70;;;16.25;;
33150;SDS011;19508;42.578;23.416;2023-02-08T17:27:57;41.60;;;17.25;;
33150;SDS011;19508;42.578;23.416;2023-02-08T17:32:51;35.47;;;15.82;;